Time;durP1;ratioP1;P1;durP2;ratioP2;P2;SDS_P1;SDS_P2;PMS_P1;PMS_P2;Temp;Humidity;BMP_temperature;BMP_pressure;BME280_temperature;BME280_humidity;BME280_pressure;Samples;Min_cycle;Max_cycle;Signal;HPM_P1;HPM_P2
2022/09/16 00:00:44;;;;;;;3.05;1.10;;;14.10;79.00;;;;;;5072651;28;20025;-32
2022/09/16 00:03:10;;;;;;;3.05;1.08;;;14.10;79.00;;;;;;5072809;28;20122;-29
2022/09/16 00:06:02;;;;;;;5.97;1.20;;;14.10;79.00;;;;;;5072814;28;20357;-31
2022/09/16 00:08:27;;;;;;;2.92;0.90;;;14.10;78.90;;;;;;5072250;28;20049;-34
2022/09/16 00:10:58;;;;;;;4.30;1.05;;;14.20;78.80;;;;;;5072361;28;20016;-29
2022/09/16 00:13:23;;;;;;;2.78;1.00;;;14.20;78.80;;;;;;5072370;28;20451;-32
2022/09/16 00:15:52;;;;;;;2.55;1.08;;;14.20;78.60;;;;;;5072542;28;20016;-29
2022/09/16 00:18:19;;;;;;;3.08;1.10;;;14.20;78.60;;;;;;5071182;28;20020;-29
2022/09/16 00:20:47;;;;;;;4.80;1.08;;;14.20;78.50;;;;;;5072469;28;20020;-29
2022/09/16 00:23:13;;;;;;;2.00;0.70;;;14.20;78.40;;;;;;5072898;28;20095;-30
2022/09/16 00:25:39;;;;;;;1.38;0.70;;;14.20;78.40;;;;;;5071326;28;20052;-31
2022/09/16 00:28:04;;;;;;;3.58;0.90;;;14.20;78.40;;;;;;5072472;28;20016;-29
2022/09/16 00:30:30;;;;;;;2.33;0.70;;;14.20;78.40;;;;;;5072222;28;20365;-28
2022/09/16 00:32:56;;;;;;;2.58;0.85;;;14.20;78.40;;;;;;5072166;28;20021;-29
2022/09/16 00:35:21;;;;;;;5.28;1.08;;;14.20;78.40;;;;;;5072551;28;20016;-29
2022/09/16 00:37:47;;;;;;;3.22;0.80;;;14.20;78.40;;;;;;5072172;28;20413;-29
2022/09/16 00:40:13;;;;;;;1.60;0.60;;;14.20;78.40;;;;;;5070629;28;20107;-28
2022/09/16 00:42:39;;;;;;;3.17;0.80;;;14.20;78.40;;;;;;5070765;28;20107;-29
2022/09/16 00:45:30;;;;;;;3.05;0.70;;;14.20;78.40;;;;;;5071623;28;20032;-30
2022/09/16 00:48:00;;;;;;;2.85;0.80;;;14.20;78.50;;;;;;5071979;28;20031;-27
2022/09/16 00:50:28;;;;;;;1.13;0.43;;;14.20;78.50;;;;;;5071655;28;20048;-28
2022/09/16 00:52:55;;;;;;;2.83;0.75;;;14.20;78.50;;;;;;5072114;28;20082;-28
2022/09/16 00:55:26;;;;;;;5.00;0.90;;;14.20;78.60;;;;;;5071593;28;20108;-31
2022/09/16 00:57:53;;;;;;;2.63;0.85;;;14.20;78.60;;;;;;5071686;28;20096;-28
2022/09/16 01:00:19;;;;;;;4.68;0.90;;;14.10;78.60;;;;;;5071852;28;20036;-29
2022/09/16 01:02:46;;;;;;;2.35;0.68;;;14.10;78.70;;;;;;5071979;28;20028;-29
2022/09/16 01:05:18;;;;;;;2.95;0.70;;;14.20;78.80;;;;;;5071682;28;20024;-32
2022/09/16 01:07:47;;;;;;;2.55;0.90;;;14.20;78.80;;;;;;5073905;28;20032;-28
2022/09/16 01:10:16;;;;;;;3.25;0.88;;;14.10;78.80;;;;;;5075523;28;20496;-32
2022/09/16 01:12:45;;;;;;;3.60;0.80;;;14.10;78.90;;;;;;5075346;28;20111;-30
2022/09/16 01:15:12;;;;;;;1.23;0.60;;;14.20;79.00;;;;;;5074916;28;20024;-28
2022/09/16 01:17:47;;;;;;;3.83;1.00;;;14.10;79.00;;;;;;5075265;28;20086;-31
2022/09/16 01:20:46;;;;;;;2.15;0.90;;;14.20;79.00;;;;;;5075254;28;20070;-31
2022/09/16 01:23:31;;;;;;;2.65;0.90;;;14.20;79.10;;;;;;5074839;28;20025;-29
2022/09/16 01:26:17;;;;;;;2.50;0.80;;;14.20;79.00;;;;;;5075177;28;20495;-30
2022/09/16 01:29:23;;;;;;;2.60;0.90;;;14.20;79.20;;;;;;5075399;28;20096;-30
2022/09/16 01:32:02;;;;;;;3.58;0.77;;;14.20;79.30;;;;;;5075007;28;20063;-29
2022/09/16 01:34:43;;;;;;;3.92;1.10;;;14.10;79.30;;;;;;5075235;28;20020;-28
2022/09/16 01:37:30;;;;;;;2.83;0.88;;;14.10;79.40;;;;;;5075055;28;20103;-29
2022/09/16 01:40:07;;;;;;;3.30;1.00;;;14.10;79.40;;;;;;5075122;28;20058;-28
2022/09/16 01:42:50;;;;;;;2.13;0.80;;;14.10;79.50;;;;;;5074993;28;20020;-29
2022/09/16 01:45:27;;;;;;;3.30;0.90;;;14.10;79.60;;;;;;5073198;28;20127;-29
2022/09/16 01:47:55;;;;;;;3.88;1.00;;;14.10;79.60;;;;;;5074735;28;20020;-29
2022/09/16 01:50:30;;;;;;;2.88;0.90;;;14.10;79.70;;;;;;5074313;28;20130;-30
2022/09/16 01:53:17;;;;;;;2.20;0.77;;;14.10;79.70;;;;;;5072976;28;20028;-29
2022/09/16 01:55:53;;;;;;;2.05;0.82;;;14.10;79.80;;;;;;5074738;28;20016;-28
2022/09/16 01:58:36;;;;;;;3.97;0.90;;;14.00;79.80;;;;;;5074466;28;20035;-32
2022/09/16 02:01:18;;;;;;;5.97;0.80;;;14.00;79.90;;;;;;5074434;28;20025;-29
2022/09/16 02:03:50;;;;;;;2.35;0.80;;;14.00;80.00;;;;;;5074629;28;20036;-28
2022/09/16 02:06:27;;;;;;;1.17;0.68;;;14.00;80.00;;;;;;5074875;28;20388;-29
2022/09/16 02:08:58;;;;;;;3.60;0.75;;;14.00;80.00;;;;;;5074401;28;20103;-30
2022/09/16 02:11:25;;;;;;;3.88;0.77;;;14.00;80.00;;;;;;5074588;28;20047;-28
2022/09/16 02:13:59;;;;;;;5.35;1.00;;;14.00;80.10;;;;;;5074497;28;20024;-29
2022/09/16 02:16:56;;;;;;;4.03;1.00;;;13.90;80.10;;;;;;5074059;28;20020;-29
2022/09/16 02:19:27;;;;;;;4.28;1.00;;;13.90;80.20;;;;;;5073177;28;20479;-29
2022/09/16 02:21:55;;;;;;;3.53;1.00;;;13.90;80.30;;;;;;5074263;28;20020;-36
2022/09/16 02:24:23;;;;;;;2.75;0.70;;;13.90;80.30;;;;;;5074206;28;20052;-29
2022/09/16 02:26:58;;;;;;;2.85;0.90;;;14.00;80.30;;;;;;5074047;28;20021;-29
2022/09/16 02:29:28;;;;;;;4.78;1.02;;;14.00;80.40;;;;;;5074268;28;20025;-28
2022/09/16 02:31:58;;;;;;;2.72;0.80;;;13.90;80.40;;;;;;5074044;28;20035;-28
2022/09/16 02:34:34;;;;;;;2.63;0.73;;;13.90;80.40;;;;;;5074207;28;20376;-29
2022/09/16 02:37:23;;;;;;;1.60;0.80;;;13.90;80.50;;;;;;5074637;28;20130;-29
2022/09/16 02:39:56;;;;;;;2.10;1.00;;;13.80;80.50;;;;;;5073085;28;20033;-29
2022/09/16 02:42:22;;;;;;;3.20;1.08;;;13.80;80.60;;;;;;5074296;28;20132;-29
2022/09/16 02:44:48;;;;;;;2.83;0.70;;;13.70;80.70;;;;;;5074286;28;20035;-31
2022/09/16 02:47:45;;;;;;;3.38;0.77;;;13.70;80.80;;;;;;5073969;28;20035;-29
2022/09/16 02:50:28;;;;;;;5.53;1.08;;;13.70;80.90;;;;;;5073875;28;20052;-27
2022/09/16 02:53:01;;;;;;;4.10;0.85;;;13.60;80.90;;;;;;5073772;28;20032;-30
2022/09/16 02:55:47;;;;;;;3.83;0.80;;;13.60;81.00;;;;;;5073752;28;20025;-30
2022/09/16 02:58:13;;;;;;;2.58;0.90;;;13.60;81.00;;;;;;5073584;28;20020;-28
2022/09/16 03:00:45;;;;;;;2.60;0.77;;;13.60;80.90;;;;;;5073616;28;20025;-32
2022/09/16 03:03:11;;;;;;;5.88;0.90;;;13.70;81.00;;;;;;5072551;28;20052;-28
2022/09/16 03:06:02;;;;;;;2.47;0.80;;;13.70;80.90;;;;;;5073866;28;20116;-40
2022/09/16 03:08:28;;;;;;;1.75;0.80;;;13.70;80.90;;;;;;5073752;28;20024;-31
2022/09/16 03:10:59;;;;;;;2.17;0.73;;;13.70;80.70;;;;;;5074128;28;20039;-28
2022/09/16 03:13:38;;;;;;;3.60;0.98;;;13.80;80.80;;;;;;5073289;28;20073;-27
2022/09/16 03:16:23;;;;;;;3.08;0.82;;;13.70;80.70;;;;;;5073541;28;20021;-32
2022/09/16 03:19:23;;;;;;;3.15;0.68;;;13.70;80.70;;;;;;5073371;28;20046;-29
2022/09/16 03:22:16;;;;;;;3.35;0.65;;;13.80;80.70;;;;;;5073897;28;20025;-32
2022/09/16 03:24:46;;;;;;;2.10;0.50;;;13.70;80.70;;;;;;5073501;28;20017;-31
2022/09/16 03:27:19;;;;;;;1.60;0.50;;;13.60;80.70;;;;;;5073601;28;20165;-28
2022/09/16 03:29:52;;;;;;;;;;;13.70;80.80;;;;;;5073772;28;20376;-29
2022/09/16 03:32:22;;;;;;;2.35;0.65;;;13.60;80.80;;;;;;5073125;28;19912;-29
2022/09/16 03:34:53;;;;;;;3.13;0.60;;;13.60;80.80;;;;;;5073529;28;20024;-29
2022/09/16 03:37:20;;;;;;;3.33;0.70;;;13.60;80.90;;;;;;5073769;28;20024;-30
2022/09/16 03:39:55;;;;;;;1.73;0.70;;;13.60;80.90;;;;;;5073546;28;20480;-34
2022/09/16 03:42:21;;;;;;;3.75;1.30;;;13.60;80.90;;;;;;5073227;28;20020;-31
2022/09/16 03:44:47;;;;;;;3.30;0.80;;;13.60;80.90;;;;;;5073314;28;20392;-29
2022/09/16 03:47:13;;;;;;;2.38;0.60;;;13.60;80.90;;;;;;5072889;28;20090;-28
2022/09/16 03:49:39;;;;;;;3.33;0.93;;;13.60;80.80;;;;;;5071377;28;20083;-29
2022/09/16 03:52:05;;;;;;;3.75;0.80;;;13.60;80.90;;;;;;5071398;28;20063;-29
2022/09/16 03:54:31;;;;;;;1.52;0.52;;;13.50;81.10;;;;;;5072720;28;20020;-27
2022/09/16 03:56:59;;;;;;;3.83;0.80;;;13.50;81.30;;;;;;5073376;28;20039;-28
2022/09/16 03:59:25;;;;;;;1.60;0.63;;;13.50;81.40;;;;;;5072616;28;20035;-28
2022/09/16 04:01:51;;;;;;;4.10;0.93;;;13.50;81.50;;;;;;5072922;28;20073;-28
2022/09/16 04:04:16;;;;;;;2.88;0.82;;;13.50;81.50;;;;;;5072846;28;20024;-28
2022/09/16 04:06:42;;;;;;;3.35;0.68;;;13.50;81.50;;;;;;5072852;28;20490;-29
2022/09/16 04:09:11;;;;;;;2.97;0.70;;;13.50;81.50;;;;;;5072852;28;20025;-30
2022/09/16 04:11:37;;;;;;;2.92;0.70;;;13.50;81.50;;;;;;5072713;28;20065;-30
2022/09/16 04:14:04;;;;;;;4.05;1.10;;;13.50;81.50;;;;;;5072720;28;20029;-29
2022/09/16 04:16:30;;;;;;;2.55;1.00;;;13.50;81.70;;;;;;5072887;28;20025;-28
2022/09/16 04:18:55;;;;;;;4.10;0.90;;;13.50;81.80;;;;;;5072623;28;20515;-30
2022/09/16 04:21:21;;;;;;;3.70;0.90;;;13.40;81.80;;;;;;5072627;28;20083;-29
2022/09/16 04:23:48;;;;;;;4.22;0.85;;;13.40;81.90;;;;;;5072520;28;20089;-29
2022/09/16 04:26:14;;;;;;;3.05;0.90;;;13.40;82.10;;;;;;5071720;28;20476;-29
2022/09/16 04:28:39;;;;;;;2.53;0.68;;;13.40;82.10;;;;;;5072645;28;20021;-29
2022/09/16 04:31:09;;;;;;;3.08;0.90;;;13.40;82.10;;;;;;5072744;28;20507;-31
2022/09/16 04:33:35;;;;;;;3.10;1.02;;;13.40;82.10;;;;;;5073096;28;20111;-30
2022/09/16 04:36:09;;;;;;;1.70;0.80;;;13.40;82.10;;;;;;5071403;28;20444;-33
2022/09/16 04:38:35;;;;;;;;;;;13.40;82.30;;;;;;5073568;28;20047;-31
2022/09/16 04:41:27;;;;;;;1.95;0.80;;;13.40;82.20;;;;;;5074233;28;19905;-29
2022/09/16 04:43:55;;;;;;;2.53;0.90;;;13.50;82.20;;;;;;5076597;28;20048;-29
2022/09/16 04:46:22;;;;;;;3.30;0.77;;;13.50;82.20;;;;;;5076568;28;20111;-27
2022/09/16 04:48:49;;;;;;;2.42;0.80;;;13.50;82.20;;;;;;5077082;28;20035;-29
2022/09/16 04:51:15;;;;;;;2.03;0.80;;;13.40;82.10;;;;;;5076116;28;20041;-29
2022/09/16 04:53:42;;;;;;;2.42;0.73;;;13.40;82.10;;;;;;5074861;28;20492;-31
2022/09/16 04:56:15;;;;;;;2.03;0.63;;;13.40;82.10;;;;;;5076219;28;20035;-27
2022/09/16 04:58:43;;;;;;;3.38;0.80;;;13.40;82.00;;;;;;5076348;28;20023;-32
2022/09/16 05:01:12;;;;;;;1.95;0.55;;;13.40;82.00;;;;;;5076178;28;20029;-27
2022/09/16 05:03:42;;;;;;;2.10;0.70;;;13.30;82.00;;;;;;5076308;28;20021;-28
2022/09/16 05:06:12;;;;;;;3.90;0.73;;;13.30;82.00;;;;;;5076236;28;20115;-28
2022/09/16 05:08:38;;;;;;;2.47;0.55;;;13.30;82.10;;;;;;5076300;28;20027;-30
2022/09/16 05:11:06;;;;;;;3.30;0.80;;;13.30;82.10;;;;;;5076347;28;20034;-29
2022/09/16 05:13:32;;;;;;;3.92;0.60;;;13.30;82.10;;;;;;5076562;28;20067;-28
2022/09/16 05:16:09;;;;;;;2.63;0.68;;;13.20;82.10;;;;;;5076072;28;20074;-29
2022/09/16 05:18:36;;;;;;;2.70;0.93;;;13.20;82.30;;;;;;5075022;28;20081;-27
2022/09/16 05:21:04;;;;;;;1.73;0.60;;;13.10;82.30;;;;;;5075708;28;20033;-31
2022/09/16 05:23:30;;;;;;;3.13;0.70;;;13.10;82.40;;;;;;5076234;28;20042;-30
2022/09/16 05:26:06;;;;;;;1.40;0.70;;;13.10;82.50;;;;;;5074585;28;20029;-29
2022/09/16 05:28:34;;;;;;;1.52;0.57;;;13.10;82.50;;;;;;5075582;28;20029;-29
2022/09/16 05:31:20;;;;;;;2.97;0.80;;;13.10;82.50;;;;;;5074364;28;20546;-29
2022/09/16 05:33:53;;;;;;;4.03;0.95;;;13.10;82.50;;;;;;5076080;28;20020;-31
2022/09/16 05:36:19;;;;;;;2.90;0.60;;;13.10;82.50;;;;;;5075364;28;20024;-28
2022/09/16 05:38:45;;;;;;;4.95;0.63;;;13.00;82.40;;;;;;5075363;28;20021;-28
2022/09/16 05:41:11;;;;;;;3.17;0.73;;;13.00;82.40;;;;;;5075742;28;20502;-30
2022/09/16 05:43:37;;;;;;;1.17;0.52;;;13.00;82.40;;;;;;5075702;28;20028;-28
2022/09/16 05:46:04;;;;;;;4.03;0.70;;;13.00;82.40;;;;;;5075235;28;20507;-30
2022/09/16 05:48:31;;;;;;;1.45;0.73;;;13.00;82.50;;;;;;5075157;28;20029;-31
2022/09/16 05:50:59;;;;;;;2.00;0.68;;;13.00;82.40;;;;;;5075244;28;20052;-29
2022/09/16 05:53:29;;;;;;;0.95;0.65;;;12.90;82.30;;;;;;5075125;28;20024;-27
2022/09/16 05:56:05;;;;;;;2.03;0.75;;;12.90;82.30;;;;;;5075374;28;20017;-31
2022/09/16 05:58:32;;;;;;;2.45;0.88;;;12.90;82.40;;;;;;5075649;28;20029;-32
2022/09/16 06:01:13;;;;;;;1.30;0.70;;;12.90;82.20;;;;;;5073816;28;20074;-30
2022/09/16 06:03:41;;;;;;;2.42;0.57;;;12.90;82.20;;;;;;5075254;28;20082;-28
2022/09/16 06:06:20;;;;;;;0.90;0.70;;;12.90;82.20;;;;;;5074918;28;20492;-35
2022/09/16 06:08:46;;;;;;;2.30;0.60;;;12.90;82.20;;;;;;5073733;28;20063;-29
2022/09/16 06:11:11;;;;;;;3.65;0.70;;;12.90;82.10;;;;;;5075421;28;20048;-27
2022/09/16 06:13:38;;;;;;;2.80;0.70;;;12.90;82.10;;;;;;5075513;28;20024;-31
2022/09/16 06:16:05;;;;;;;1.55;0.57;;;12.90;82.00;;;;;;5075070;28;20024;-33
2022/09/16 06:18:32;;;;;;;4.03;1.02;;;12.90;82.00;;;;;;5075380;28;20020;-29
2022/09/16 06:21:02;;;;;;;1.30;0.70;;;13.00;82.10;;;;;;5073565;28;20086;-29
2022/09/16 06:23:27;;;;;;;2.20;0.60;;;13.00;82.10;;;;;;5074925;28;20028;-31
2022/09/16 06:26:05;;;;;;;1.65;0.68;;;13.00;82.00;;;;;;5074836;28;20108;-32
2022/09/16 06:28:31;;;;;;;3.13;0.80;;;13.00;81.90;;;;;;5074716;28;20032;-29
2022/09/16 06:31:14;;;;;;;2.95;0.75;;;13.00;81.80;;;;;;5073164;28;20256;-30
2022/09/16 06:33:40;;;;;;;1.58;0.80;;;13.10;81.80;;;;;;5074346;28;20050;-30
2022/09/16 06:36:18;;;;;;;3.38;0.70;;;13.10;81.80;;;;;;5074372;28;20021;-29
2022/09/16 06:38:45;;;;;;;2.50;0.70;;;13.10;81.80;;;;;;5074288;28;20421;-28
2022/09/16 06:41:12;;;;;;;2.42;0.88;;;13.10;81.70;;;;;;5074265;28;20086;-29
2022/09/16 06:43:38;;;;;;;2.28;0.85;;;13.20;81.70;;;;;;5074026;28;20028;-29
2022/09/16 06:46:12;;;;;;;3.70;0.70;;;13.20;81.60;;;;;;5073972;28;20036;-31
2022/09/16 06:48:42;;;;;;;4.38;0.85;;;13.30;81.70;;;;;;5073859;28;20024;-28
2022/09/16 06:51:21;;;;;;;2.65;0.80;;;13.30;81.60;;;;;;5073733;28;20128;-28
2022/09/16 06:53:47;;;;;;;3.78;1.00;;;13.30;81.50;;;;;;5074053;28;20135;-40
2022/09/16 06:56:15;;;;;;;3.13;0.60;;;13.40;82.10;;;;;;5073940;28;20376;-38
2022/09/16 06:58:43;;;;;;;3.03;1.02;;;13.40;81.50;;;;;;5073769;28;20512;-37
2022/09/16 07:01:14;;;;;;;3.22;0.90;;;13.40;81.40;;;;;;5074006;28;20426;-37
2022/09/16 07:03:44;;;;;;;2.95;0.80;;;13.50;81.40;;;;;;5073289;28;20383;-39
2022/09/16 07:06:11;;;;;;;1.98;0.65;;;13.50;81.30;;;;;;5073615;28;20020;-39
2022/09/16 07:08:38;;;;;;;3.60;0.93;;;13.50;81.30;;;;;;5073593;28;20051;-39
2022/09/16 07:11:25;;;;;;;4.25;0.90;;;13.60;81.20;;;;;;5073820;28;20024;-38
2022/09/16 07:13:51;;;;;;;5.85;1.00;;;13.70;81.20;;;;;;5073302;28;20040;-47
2022/09/16 07:16:22;;;;;;;3.13;0.80;;;13.80;81.10;;;;;;5073524;28;20024;-25
2022/09/16 07:18:52;;;;;;;2.20;0.70;;;13.90;81.00;;;;;;5073488;28;20029;-25
2022/09/16 07:21:19;;;;;;;2.88;0.82;;;14.00;80.90;;;;;;5073341;28;20035;-25
2022/09/16 07:23:45;;;;;;;1.95;0.88;;;14.10;80.70;;;;;;5073391;28;20025;-40
2022/09/16 07:26:14;;;;;;;4.88;1.02;;;14.20;80.60;;;;;;5073531;28;20426;-33
2022/09/16 07:28:41;;;;;;;5.22;0.90;;;14.30;80.40;;;;;;5073534;28;20411;-42
2022/09/16 07:31:12;;;;;;;3.30;0.50;;;14.30;80.10;;;;;;5073276;28;20081;-41
2022/09/16 07:33:39;;;;;;;4.72;0.95;;;14.30;80.00;;;;;;5073742;28;20074;-42
2022/09/16 07:36:07;;;;;;;1.13;0.60;;;14.40;79.90;;;;;;5073376;28;20023;-43
2022/09/16 07:38:33;;;;;;;3.30;0.80;;;14.40;79.80;;;;;;5073354;28;20052;-38
2022/09/16 07:41:22;;;;;;;2.63;0.75;;;14.30;79.80;;;;;;5073231;28;20031;-41
2022/09/16 07:43:49;;;;;;;2.72;1.23;;;14.30;79.80;;;;;;5073292;28;20028;-40
2022/09/16 07:46:16;;;;;;;2.53;0.60;;;14.30;79.80;;;;;;5072930;28;20067;-40
2022/09/16 07:48:43;;;;;;;1.85;0.55;;;14.40;79.70;;;;;;5072928;28;20025;-40
2022/09/16 07:51:11;;;;;;;3.20;0.88;;;14.30;79.50;;;;;;5072839;28;20052;-41
2022/09/16 07:53:37;;;;;;;5.95;0.90;;;14.40;79.40;;;;;;5072919;28;20020;-31
2022/09/16 07:56:17;;;;;;;4.10;0.77;;;14.50;79.30;;;;;;5073249;28;20024;-30
2022/09/16 07:58:44;;;;;;;3.50;0.80;;;14.50;79.10;;;;;;5073215;28;20069;-29
2022/09/16 08:01:10;;;;;;;3.88;0.80;;;14.60;79.00;;;;;;5072968;28;20017;-27
2022/09/16 08:03:37;;;;;;;3.80;0.63;;;14.60;78.50;;;;;;5072754;28;20473;-28
2022/09/16 08:06:06;;;;;;;2.90;0.60;;;14.70;78.20;;;;;;5073121;28;20372;-28
2022/09/16 08:08:32;;;;;;;3.40;0.80;;;14.80;77.90;;;;;;5072851;28;20515;-27
2022/09/16 08:10:59;;;;;;;3.80;0.90;;;14.80;77.70;;;;;;5072794;28;20024;-29
2022/09/16 08:13:26;;;;;;;2.60;0.80;;;14.90;77.50;;;;;;5072630;28;20032;-33
2022/09/16 08:15:52;;;;;;;4.75;0.90;;;14.90;77.30;;;;;;5072740;28;20028;-31
2022/09/16 08:18:18;;;;;;;2.15;0.55;;;14.90;77.20;;;;;;5072593;28;20023;-29
2022/09/16 08:20:44;;;;;;;2.03;0.50;;;14.90;77.00;;;;;;5072974;28;20129;-28
2022/09/16 08:23:09;;;;;;;1.08;0.40;;;14.90;76.10;;;;;;5072704;28;20031;-28
2022/09/16 08:25:35;;;;;;;4.32;0.70;;;14.90;75.50;;;;;;5072566;28;20107;-32
2022/09/16 08:28:02;;;;;;;3.65;0.85;;;14.90;74.50;;;;;;5072737;28;20043;-26
2022/09/16 08:30:27;;;;;;;8.35;0.85;;;14.80;75.00;;;;;;5072729;28;20024;-29
2022/09/16 08:32:57;;;;;;;2.97;0.80;;;14.80;75.20;;;;;;5072560;28;20033;-28
2022/09/16 08:35:23;;;;;;;2.38;0.52;;;14.90;75.30;;;;;;5072557;28;20013;-31
2022/09/16 08:37:49;;;;;;;2.28;0.60;;;14.80;75.40;;;;;;5073347;28;20046;-29
2022/09/16 08:40:18;;;;;;;3.45;0.73;;;14.90;75.10;;;;;;5072878;28;20016;-29
2022/09/16 08:43:06;;;;;;;1.73;0.57;;;15.00;74.90;;;;;;5072550;28;20051;-28
2022/09/16 08:45:45;;;;;;;2.10;0.40;;;15.00;74.90;;;;;;5072332;28;20103;-28
2022/09/16 08:48:16;;;;;;;2.95;0.70;;;15.10;74.40;;;;;;5072319;28;20031;-32
2022/09/16 08:50:45;;;;;;;2.97;0.60;;;15.30;74.40;;;;;;5071991;28;20584;-30
2022/09/16 08:53:40;;;;;;;4.78;0.88;;;15.40;73.60;;;;;;5072165;28;20021;-29
2022/09/16 08:56:12;;;;;;;3.08;0.65;;;15.50;73.10;;;;;;5072365;28;20035;-28
2022/09/16 08:58:42;;;;;;;3.17;0.70;;;15.60;72.70;;;;;;5072200;28;20032;-29
2022/09/16 09:01:37;;;;;;;2.55;0.80;;;15.70;72.00;;;;;;5072274;28;20032;-38
2022/09/16 09:04:03;;;;;;;2.50;0.82;;;15.80;71.60;;;;;;5071019;28;20064;-38
2022/09/16 09:06:38;;;;;;;2.55;0.80;;;15.70;71.70;;;;;;5072331;28;20081;-39
2022/09/16 09:09:16;;;;;;;1.02;0.52;;;15.70;71.40;;;;;;5072482;28;20438;-39
2022/09/16 09:12:02;;;;;;;1.30;0.50;;;15.70;71.20;;;;;;5072403;28;20400;-41
2022/09/16 09:14:46;;;;;;;1.48;0.40;;;15.70;71.00;;;;;;5071416;28;20040;-41
2022/09/16 09:17:30;;;;;;;1.60;0.50;;;15.60;70.60;;;;;;5072128;28;20028;-39
2022/09/16 09:20:22;;;;;;;2.00;0.45;;;15.70;70.30;;;;;;5072162;28;20025;-39
2022/09/16 09:23:12;;;;;;;2.05;0.80;;;15.70;68.90;;;;;;5072112;28;20043;-26
2022/09/16 09:26:08;;;;;;;2.47;0.70;;;15.80;68.30;;;;;;5070598;28;20336;-28
2022/09/16 09:29:03;;;;;;;1.90;0.70;;;15.80;68.20;;;;;;5075565;28;20032;-25
2022/09/16 09:31:56;;;;;;;1.15;0.40;;;15.70;67.90;;;;;;5075808;28;20103;-25
2022/09/16 09:34:28;;;;;;;1.05;0.45;;;15.70;67.60;;;;;;5074366;28;20025;-27
2022/09/16 09:37:02;;;;;;;1.73;0.50;;;15.80;67.60;;;;;;5075581;28;20016;-26
2022/09/16 09:39:47;;;;;;;1.35;0.68;;;15.80;67.30;;;;;;5075788;28;20024;-26
2022/09/16 09:42:20;;;;;;;3.42;0.60;;;15.90;67.20;;;;;;5075293;28;20024;-25
2022/09/16 09:45:19;;;;;;;2.63;0.60;;;15.90;66.30;;;;;;5075266;28;20032;-26
2022/09/16 09:47:53;;;;;;;2.22;0.60;;;16.00;65.60;;;;;;5075238;28;20304;-25
2022/09/16 09:50:29;;;;;;;3.05;0.60;;;16.00;64.90;;;;;;5073732;28;20404;-24
2022/09/16 09:53:17;;;;;;;1.20;0.40;;;16.10;64.50;;;;;;5075316;28;20465;-24
2022/09/16 09:55:43;;;;;;;1.42;0.60;;;16.10;64.30;;;;;;5075389;28;20017;-27
2022/09/16 09:58:55;;;;;;;1.20;0.60;;;16.20;64.30;;;;;;5131159;27;20415;-24
2022/09/16 10:01:21;;;;;;;1.63;0.63;;;16.30;63.90;;;;;;5092425;28;20157;-25
2022/09/16 10:03:49;;;;;;;1.05;0.52;;;16.40;64.10;;;;;;5112521;28;20180;-26
2022/09/16 10:06:19;;;;;;;2.33;0.57;;;16.60;63.10;;;;;;5130851;28;20035;-24
2022/09/16 10:08:48;;;;;;;1.08;0.50;;;16.60;62.70;;;;;;5130805;28;20450;-25
2022/09/16 10:11:19;;;;;;;2.53;0.88;;;16.70;62.30;;;;;;5112452;28;20039;-25
2022/09/16 10:13:50;;;;;;;0.80;0.40;;;16.70;62.60;;;;;;5130919;28;20031;-40
2022/09/16 10:16:19;;;;;;;2.42;0.47;;;16.70;62.60;;;;;;5131019;28;20030;-40
2022/09/16 10:18:57;;;;;;;1.60;0.50;;;16.70;63.10;;;;;;5130809;28;20582;-39
2022/09/16 10:21:24;;;;;;;1.17;0.43;;;16.70;63.10;;;;;;5131145;28;20061;-30
2022/09/16 10:23:56;;;;;;;1.95;0.50;;;16.70;62.40;;;;;;5130762;28;20110;-29
2022/09/16 10:26:24;;;;;;;1.15;0.50;;;16.80;62.50;;;;;;5131012;28;20028;-27
2022/09/16 10:29:14;;;;;;;1.13;0.35;;;16.80;61.90;;;;;;5112134;28;20031;-42
2022/09/16 10:31:41;;;;;;;1.67;0.50;;;16.80;61.90;;;;;;5129692;27;20454;-43
2022/09/16 10:34:28;;;;;;;2.42;0.38;;;16.90;61.50;;;;;;5130744;28;20023;-38
2022/09/16 10:37:15;;;;;;;2.28;0.50;;;16.90;61.70;;;;;;5130314;28;20099;-40
2022/09/16 10:39:45;;;;;;;1.27;0.50;;;17.10;61.40;;;;;;5130463;28;20356;-40
2022/09/16 10:42:25;;;;;;;1.42;0.55;;;17.10;60.70;;;;;;5112522;28;20479;-41
2022/09/16 10:44:54;;;;;;;1.23;0.50;;;17.20;60.60;;;;;;5134304;27;20035;-41
2022/09/16 10:47:24;;;;;;;1.20;0.50;;;17.30;60.20;;;;;;5151248;27;20130;-43
2022/09/16 10:49:52;;;;;;;1.92;0.73;;;17.40;60.40;;;;;;5150808;27;20072;-41
2022/09/16 10:52:22;;;;;;;1.55;0.55;;;17.50;59.50;;;;;;5151038;27;20036;-41
2022/09/16 10:54:48;;;;;;;1.20;0.55;;;17.40;58.40;;;;;;5150807;27;20117;-40
2022/09/16 10:57:31;;;;;;;2.03;0.90;;;17.40;58.90;;;;;;5150861;27;20070;-42
2022/09/16 11:00:16;;;;;;;2.55;0.50;;;17.40;58.90;;;;;;5150751;27;20102;-25
2022/09/16 11:02:51;;;;;;;1.67;0.60;;;17.50;58.80;;;;;;5150651;27;20023;-25
2022/09/16 11:05:41;;;;;;;1.20;0.60;;;17.60;58.40;;;;;;5150760;27;20058;-25
2022/09/16 11:08:53;;;;;;;3.20;0.60;;;17.60;58.50;;;;;;5146164;27;20078;-25
2022/09/16 11:11:48;;;;;;;2.28;0.60;;;17.60;58.50;;;;;;5090867;27;20050;-27
2022/09/16 11:14:45;;;;;;;1.25;0.50;;;17.50;59.00;;;;;;5136916;27;20075;-26
2022/09/16 11:17:13;;;;;;;3.80;0.70;;;17.40;59.20;;;;;;5136483;27;20034;-25
2022/09/16 11:20:02;;;;;;;1.90;0.68;;;17.30;59.40;;;;;;5136378;27;20034;-26
2022/09/16 11:22:55;;;;;;;1.00;0.47;;;17.10;59.60;;;;;;5120279;27;20031;-27
2022/09/16 11:25:31;;;;;;;2.25;0.60;;;16.80;59.70;;;;;;5118033;27;20023;-27
2022/09/16 11:28:19;;;;;;;3.92;0.80;;;16.70;59.90;;;;;;5136460;27;20031;-27
2022/09/16 11:31:23;;;;;;;2.85;0.60;;;16.60;59.80;;;;;;5136383;27;20074;-25
2022/09/16 11:34:15;;;;;;;1.75;0.45;;;16.60;59.90;;;;;;5131524;27;20383;-25
2022/09/16 11:36:59;;;;;;;3.45;0.70;;;16.70;59.60;;;;;;5136083;27;20035;-25
2022/09/16 11:40:06;;;;;;;1.25;0.40;;;16.80;58.70;;;;;;5136369;27;20063;-24
2022/09/16 11:42:43;;;;;;;0.77;0.35;;;16.90;58.80;;;;;;5033046;28;20034;-26
2022/09/16 11:45:24;;;;;;;0.98;0.30;;;16.90;59.10;;;;;;5032704;28;20093;-24
2022/09/16 11:48:07;;;;;;;0.80;0.43;;;17.00;58.00;;;;;;5101248;27;20035;-25
2022/09/16 11:50:43;;;;;;;3.13;0.75;;;17.10;57.20;;;;;;5136079;27;20477;-27
2022/09/16 11:53:30;;;;;;;1.45;0.55;;;17.10;56.80;;;;;;5136170;27;20023;-26
2022/09/16 11:56:07;;;;;;;3.60;0.80;;;17.20;56.80;;;;;;5135638;27;20134;-25
2022/09/16 11:58:46;;;;;;;5.15;0.80;;;17.10;56.10;;;;;;5136064;27;20034;-27
2022/09/16 12:01:17;;;;;;;3.13;0.82;;;17.00;56.40;;;;;;5117616;27;20039;-26
2022/09/16 12:03:59;;;;;;;4.03;0.90;;;16.90;56.10;;;;;;5135891;27;20034;-26
2022/09/16 12:06:29;;;;;;;2.92;0.75;;;16.90;56.50;;;;;;5117323;27;20047;-26
2022/09/16 12:09:01;;;;;;;3.42;0.70;;;17.00;56.30;;;;;;5135743;27;20031;-26
2022/09/16 12:11:35;;;;;;;2.90;0.63;;;17.10;56.10;;;;;;5135644;27;20134;-32
2022/09/16 12:14:28;;;;;;;1.83;0.60;;;17.20;55.50;;;;;;5135658;27;20023;-25
2022/09/16 12:16:57;;;;;;;4.78;0.73;;;17.40;55.40;;;;;;5116674;27;20031;-30
2022/09/16 12:19:31;;;;;;;3.42;0.80;;;17.50;54.40;;;;;;5135817;27;20474;-25
2022/09/16 12:22:06;;;;;;;2.83;0.70;;;17.60;54.50;;;;;;5134917;27;20072;-26
2022/09/16 12:24:45;;;;;;;1.48;0.80;;;17.70;54.70;;;;;;5117100;27;20077;-27
2022/09/16 12:27:34;;;;;;;3.55;1.08;;;17.90;54.60;;;;;;5135017;27;20039;-27
2022/09/16 12:30:12;;;;;;;2.45;0.85;;;18.10;52.00;;;;;;5134969;27;20034;-25
2022/09/16 12:32:48;;;;;;;2.83;0.80;;;18.20;52.80;;;;;;5135328;27;20113;-26
2022/09/16 12:35:20;;;;;;;2.20;0.85;;;18.30;53.10;;;;;;5135965;27;20034;-25
2022/09/16 12:37:48;;;;;;;3.50;0.80;;;18.30;53.00;;;;;;5117751;27;20054;-25
2022/09/16 12:40:37;;;;;;;1.83;0.70;;;18.40;52.90;;;;;;5135104;27;20277;-34
2022/09/16 12:43:33;;;;;;;4.55;0.73;;;18.40;52.90;;;;;;5134927;27;20025;-27
2022/09/16 12:46:12;;;;;;;2.90;0.77;;;18.30;53.40;;;;;;5134828;27;20024;-26
2022/09/16 12:49:37;;;;;;;2.60;0.60;;;18.20;54.50;;;;;;5135062;27;20034;-26
2022/09/16 12:52:21;;;;;;;;;;;18.20;55.30;;;;;;5031833;28;20029;-27
2022/09/16 12:55:28;;;;;;;2.17;1.00;;;18.20;55.90;;;;;;5134802;27;19907;-26
2022/09/16 12:58:06;;;;;;;3.70;0.90;;;18.20;56.30;;;;;;5031068;28;20057;-26
2022/09/16 13:00:49;;;;;;;3.22;1.05;;;18.20;56.80;;;;;;5122277;27;20055;-24
2022/09/16 13:03:18;;;;;;;2.42;0.77;;;18.10;56.90;;;;;;5134584;27;20065;-28
2022/09/16 13:05:47;;;;;;;4.75;1.35;;;18.10;57.00;;;;;;5134531;27;20023;-25
2022/09/16 13:08:26;;;;;;;5.57;1.27;;;18.20;56.90;;;;;;5134786;27;20031;-26
2022/09/16 13:11:06;;;;;;;2.33;0.82;;;18.20;57.00;;;;;;5134563;27;20545;-25
2022/09/16 13:13:45;;;;;;;4.28;1.20;;;18.30;56.60;;;;;;5134512;27;20027;-33
2022/09/16 13:16:11;;;;;;;3.05;0.88;;;18.40;56.30;;;;;;5134089;27;20054;-27
2022/09/16 13:18:39;;;;;;;2.45;0.80;;;18.50;55.90;;;;;;5134508;27;20027;-27
2022/09/16 13:21:15;;;;;;;3.70;1.00;;;18.50;55.90;;;;;;5115641;27;20079;-26
2022/09/16 13:23:46;;;;;;;4.40;1.00;;;18.70;55.90;;;;;;5134396;27;20501;-27